Airfield :
LOGIN :

Register | Disclaimer

   EN    FR    IT 

 










Legend :    VFR   Marginal VFR   IFR   Intensive IFR   Very Intensive IFR
Visi :
Ceiling :
>= 8 km
>= 3000ft
5 to 8 km
1000 to 3000 ft
1500m to 5 km
500 to 1000 ft
800 to 1500m
200 to 500 ft
< 800m
< 200 ft
Symbols :   Thunderstorms  Fog  Heavy snow  Heavy precipitations  Wind > 20 kt
SIGMETs :     Misc.  Thunderstorms  Icing  Turbulence  Mountain Waves  Volcanic Ashes






- Airport Elevation : 352 ft
- IATA code : ARW


LRAR - Arad International

CURRENT METAR :
  • 270500Z 36002KT 2500 -FZRA BR FEW007 SCT011 BKN014 M00/M00 Q1018 R09/29//95

EXPIRED METARs :
  • 270430Z VRB02KT 2500 -FZRA BR SCT010 BKN019 M00/M00 Q1018
  • 270400Z 35002KT 3300 -FZRA BR BKN010 BKN017 M00/M00 Q1018
  • 270330Z 02003KT 350V050 4000 BR FEW011 M00/M00 Q1017
  • 270300Z 02004KT 340V040 3300 BR FEW013 M00/M00 Q1018
  • 270230Z 03003KT 350V050 3500 BR SCT012 00/00 Q1018

TAF TAF LRAR
Valid from the 27 at 03:00 until the 27 at 12:00 UTC


270200Z 2703/2712 VRB04KT 3000 BR NSC
TEMPO 2703/2705 -FZRA
BECMG 2705/2707 1500 -RA BR BKN010 BKN030
BECMG 2707/2709 BKN005 OVC025



MET'MAP, your aeronautical weather chart ! - Copyright ORBIFLY December 2007 - Disclaimer

ORBIFLY MET'MAP TEAM :

Programming & Development : Alexandra Zaïnal
Concept & original design : Baudouin d'Aumeries
Assistance for programming : Marc-Olivier Méhu
Technical & hardware support : Manuel Goepfert

Contact : metmap@orbifly.com




SOURCES & CREDITS :

   NOAA